createdAt,value
2023-01-04T00:01:33.060Z,21.15
2023-01-04T00:04:01.072Z,19.42
2023-01-04T00:06:29.133Z,25.05
2023-01-04T00:08:56.799Z,63.85
2023-01-04T00:11:25.667Z,52.08
2023-01-04T00:13:56.812Z,100.55
2023-01-04T00:16:26.269Z,49.50
2023-01-04T00:18:55.524Z,62.72
2023-01-04T00:21:25.674Z,84.90
2023-01-04T00:23:56.118Z,55.12
2023-01-04T00:26:29.872Z,51.78
2023-01-04T00:28:59.426Z,71.90
2023-01-04T00:31:28.443Z,54.75
2023-01-04T00:33:58.016Z,65.37
2023-01-04T00:36:26.534Z,52.70
2023-01-04T00:39:15.469Z,50.65
2023-01-04T00:42:02.724Z,49.17
2023-01-04T00:44:31.792Z,64.18
2023-01-04T00:47:03.677Z,47.15
2023-01-04T00:49:32.189Z,72.68
2023-01-04T00:52:00.153Z,60.92
2023-01-04T00:54:28.088Z,44.33
2023-01-04T00:56:55.871Z,45.97
2023-01-04T00:59:24.084Z,40.22
2023-01-04T01:01:52.425Z,42.05
2023-01-04T01:04:23.691Z,40.25
2023-01-04T01:06:52.381Z,44.55
2023-01-04T01:09:23.801Z,55.25
2023-01-04T01:11:53.172Z,55.12
2023-01-04T01:14:24.738Z,40.50
2023-01-04T01:16:59.922Z,46.97
2023-01-04T01:19:30.046Z,38.88
2023-01-04T01:21:58.798Z,38.72
2023-01-04T01:24:27.391Z,32.30
2023-01-04T01:26:55.912Z,27.62
2023-01-04T01:29:23.859Z,26.70
2023-01-04T01:31:51.614Z,23.27
2023-01-04T01:34:19.452Z,19.60
2023-01-04T01:36:47.165Z,24.77
2023-01-04T01:39:14.864Z,20.40
2023-01-04T01:41:42.995Z,22.33
2023-01-04T01:44:13.766Z,20.90
2023-01-04T01:46:51.194Z,21.30
2023-01-04T01:49:38.618Z,21.77
2023-01-04T01:52:10.132Z,21.70
2023-01-04T01:54:43.041Z,18.87
2023-01-04T01:57:14.916Z,19.33
2023-01-04T01:59:45.317Z,20.77
2023-01-04T02:02:13.413Z,23.73
2023-01-04T02:04:48.359Z,18.90
2023-01-04T02:07:21.764Z,21.92
2023-01-04T02:09:51.202Z,22.58
2023-01-04T02:12:19.250Z,24.80
2023-01-04T02:14:50.103Z,28.50
2023-01-04T02:17:46.671Z,22.80
2023-01-04T02:20:37.287Z,24.83
2023-01-04T02:23:43.739Z,21.75
2023-01-04T02:26:20.399Z,24.67
2023-01-04T02:29:16.811Z,23.65
2023-01-04T02:31:55.832Z,29.00
2023-01-04T02:34:32.839Z,24.40
2023-01-04T02:37:19.909Z,25.65
2023-01-04T02:40:23.750Z,24.52
2023-01-04T02:43:25.428Z,22.65
2023-01-04T02:46:02.583Z,26.73
2023-01-04T02:48:59.792Z,25.92
2023-01-04T02:51:38.481Z,22.15
2023-01-04T02:54:13.912Z,21.23
2023-01-04T02:57:11.996Z,20.48
2023-01-04T02:59:48.475Z,23.48
2023-01-04T03:02:50.624Z,24.75
2023-01-04T03:06:18.010Z,22.48
2023-01-04T03:08:50.895Z,23.55
2023-01-04T03:11:38.070Z,22.65
2023-01-04T03:14:31.668Z,22.67
2023-01-04T03:17:05.666Z,18.00
2023-01-04T03:19:55.407Z,17.27
2023-01-04T03:22:59.638Z,18.25
2023-01-04T03:25:53.069Z,18.52
2023-01-04T03:28:45.219Z,16.23
2023-01-04T03:31:41.780Z,17.05
2023-01-04T03:34:28.665Z,15.75
2023-01-04T03:37:05.959Z,16.50
2023-01-04T03:40:11.487Z,14.50
2023-01-04T03:43:13.922Z,17.20
2023-01-04T03:46:12.890Z,18.33
2023-01-04T03:48:50.740Z,15.75
2023-01-04T03:51:23.960Z,13.52
2023-01-04T03:54:19.033Z,17.12
2023-01-04T03:56:48.952Z,16.35
2023-01-04T03:59:16.821Z,15.25
2023-01-04T04:01:46.412Z,19.33
2023-01-04T04:04:33.020Z,14.43
2023-01-04T04:07:19.278Z,16.17
2023-01-04T04:09:46.991Z,18.37
2023-01-04T04:12:14.625Z,15.68
2023-01-04T04:14:42.345Z,15.88
2023-01-04T04:17:10.062Z,16.83
2023-01-04T04:19:37.710Z,14.38
2023-01-04T04:22:05.435Z,17.58
2023-01-04T04:24:33.151Z,16.25
2023-01-04T04:27:00.957Z,15.02
2023-01-04T04:29:28.648Z,14.07
2023-01-04T04:31:56.469Z,12.73
2023-01-04T04:34:24.086Z,17.98
2023-01-04T04:36:51.738Z,16.65
2023-01-04T04:39:19.638Z,13.35
2023-01-04T04:41:47.356Z,16.50
2023-01-04T04:44:18.180Z,15.32
2023-01-04T04:46:46.735Z,14.52
2023-01-04T04:49:14.918Z,12.73
2023-01-04T04:51:43.745Z,13.45
2023-01-04T04:54:19.459Z,13.13
2023-01-04T04:56:48.313Z,13.73
2023-01-04T04:59:16.477Z,16.62
2023-01-04T05:01:44.262Z,14.50
2023-01-04T05:04:17.519Z,13.00
2023-01-04T05:06:45.979Z,12.00
2023-01-04T05:09:15.215Z,13.90
2023-01-04T05:12:02.329Z,13.10
2023-01-04T05:14:30.210Z,15.48
2023-01-04T05:16:57.911Z,16.50
2023-01-04T05:19:25.607Z,13.85
2023-01-04T05:21:53.236Z,13.40
2023-01-04T05:24:20.905Z,14.20
2023-01-04T05:26:48.517Z,15.23
2023-01-04T05:29:36.097Z,14.30
2023-01-04T05:32:03.897Z,14.85
2023-01-04T05:34:31.634Z,14.65
2023-01-04T05:36:59.293Z,15.52
2023-01-04T05:39:26.951Z,13.23
2023-01-04T05:42:13.085Z,13.05
2023-01-04T05:44:40.759Z,11.00
2023-01-04T05:47:13.054Z,13.40
2023-01-04T05:49:42.606Z,14.00
2023-01-04T05:52:10.653Z,12.57
2023-01-04T05:54:38.294Z,11.75
2023-01-04T05:57:06.311Z,12.77
2023-01-04T05:59:40.876Z,12.13
2023-01-04T06:02:15.618Z,10.93
2023-01-04T06:04:43.427Z,11.52
2023-01-04T06:07:11.135Z,11.80
2023-01-04T06:09:38.795Z,14.00
2023-01-04T06:12:06.733Z,11.63
2023-01-04T06:14:34.525Z,11.65
2023-01-04T06:17:02.290Z,11.73
2023-01-04T06:19:30.054Z,13.00
2023-01-04T06:21:58.236Z,10.57
2023-01-04T06:24:25.884Z,12.30
2023-01-04T06:26:53.688Z,12.70
2023-01-04T06:29:21.356Z,11.18
2023-01-04T06:31:49.127Z,11.57
2023-01-04T06:34:16.858Z,13.05
2023-01-04T06:36:44.838Z,13.70
2023-01-04T06:39:12.536Z,11.80
2023-01-04T06:41:40.339Z,10.68
2023-01-04T06:44:08.184Z,12.02
2023-01-04T06:46:35.978Z,13.20
2023-01-04T06:49:03.779Z,13.68
2023-01-04T06:51:31.429Z,14.02
2023-01-04T06:53:59.158Z,12.23
2023-01-04T06:56:26.864Z,13.77
2023-01-04T06:58:54.489Z,13.75
2023-01-04T07:01:22.265Z,11.73
2023-01-04T07:03:49.952Z,14.70
2023-01-04T07:06:17.715Z,14.55
2023-01-04T07:08:45.424Z,13.75
2023-01-04T07:11:13.106Z,14.05
2023-01-04T07:13:40.743Z,14.77
2023-01-04T07:16:08.501Z,15.30
2023-01-04T07:18:36.219Z,15.05
2023-01-04T07:21:03.910Z,13.18
2023-01-04T07:23:31.606Z,15.45
2023-01-04T07:26:02.919Z,11.57
2023-01-04T07:28:49.551Z,13.93
2023-01-04T07:31:17.412Z,16.37
2023-01-04T07:33:45.195Z,15.52
2023-01-04T07:36:12.885Z,15.60
2023-01-04T07:38:40.620Z,15.45
2023-01-04T07:41:08.310Z,16.75
2023-01-04T07:43:35.977Z,15.57
2023-01-04T07:46:03.725Z,14.40
2023-01-04T07:48:31.538Z,13.95
2023-01-04T07:50:59.288Z,12.15
2023-01-04T07:53:27.068Z,14.30
2023-01-04T07:56:01.635Z,14.90
2023-01-04T07:58:34.052Z,13.27
2023-01-04T08:01:22.073Z,14.73
2023-01-04T08:03:49.984Z,13.90
2023-01-04T08:06:18.623Z,14.25
2023-01-04T08:08:46.263Z,15.38
2023-01-04T08:11:16.973Z,13.30
2023-01-04T08:13:44.870Z,12.85
2023-01-04T08:16:40.111Z,12.18
2023-01-04T08:19:12.877Z,10.85
2023-01-04T08:21:40.768Z,12.60
2023-01-04T08:24:08.548Z,10.90
2023-01-04T08:26:36.303Z,8.60
2023-01-04T08:29:04.026Z,9.30
2023-01-04T08:31:33.765Z,9.60
2023-01-04T08:34:04.852Z,6.55
2023-01-04T08:36:35.512Z,7.65
2023-01-04T08:39:06.119Z,6.22
2023-01-04T08:42:20.401Z,7.22
2023-01-04T08:44:39.627Z,6.22
2023-01-04T08:47:07.496Z,7.65
2023-01-04T08:49:35.216Z,6.55
2023-01-04T08:52:03.081Z,7.22
2023-01-04T08:54:30.869Z,6.80
2023-01-04T08:56:58.621Z,6.25
2023-01-04T08:59:26.423Z,8.32
2023-01-04T09:01:55.760Z,6.50
2023-01-04T09:04:26.224Z,6.62
2023-01-04T09:06:53.996Z,7.82
2023-01-04T09:09:21.762Z,6.87
2023-01-04T09:11:49.577Z,6.22
2023-01-04T09:14:17.284Z,7.70
2023-01-04T09:16:45.187Z,6.30
2023-01-04T09:19:18.044Z,9.13
2023-01-04T09:21:49.321Z,5.50
2023-01-04T09:24:17.079Z,5.45
2023-01-04T09:26:44.825Z,6.43
2023-01-04T09:29:12.762Z,4.90
2023-01-04T09:31:40.536Z,6.55
2023-01-04T09:34:17.397Z,4.85
2023-01-04T09:36:48.930Z,5.68
2023-01-04T09:39:24.829Z,4.62
2023-01-04T09:41:58.594Z,6.53
2023-01-04T09:45:22.502Z,5.25
2023-01-04T09:47:41.975Z,5.43
2023-01-04T09:50:23.185Z,5.28
2023-01-04T09:53:40.227Z,4.95
2023-01-04T09:56:26.825Z,5.55
2023-01-04T09:58:55.889Z,5.70
2023-01-04T10:01:27.304Z,5.53
2023-01-04T10:04:03.222Z,5.70
2023-01-04T10:06:31.602Z,6.20
2023-01-04T10:09:04.197Z,6.25
2023-01-04T10:11:40.568Z,5.72
2023-01-04T10:14:49.635Z,4.95
2023-01-04T10:17:57.446Z,5.60
2023-01-04T10:23:26.839Z,6.62
2023-01-04T10:26:02.158Z,6.57
2023-01-04T10:29:09.073Z,5.03
2023-01-04T10:31:43.572Z,5.53
2023-01-04T10:34:22.959Z,4.95
2023-01-04T10:36:52.652Z,4.90
2023-01-04T10:39:32.093Z,5.60
2023-01-04T10:42:34.130Z,5.32
2023-01-04T10:45:34.531Z,7.30
2023-01-04T10:48:11.850Z,6.72
2023-01-04T10:51:05.164Z,5.95
2023-01-04T10:53:41.686Z,5.50
2023-01-04T10:56:41.526Z,5.28
2023-01-04T10:59:13.126Z,5.20
2023-01-04T11:02:20.092Z,6.25
2023-01-04T11:04:54.711Z,4.78
2023-01-04T11:07:33.276Z,5.10
2023-01-04T11:10:08.345Z,5.15
2023-01-04T11:12:36.341Z,5.20
2023-01-04T11:15:05.078Z,4.65
2023-01-04T11:17:33.721Z,6.03
2023-01-04T11:20:01.667Z,5.60
2023-01-04T11:22:38.351Z,5.40
2023-01-04T11:28:19.184Z,4.32
2023-01-04T11:31:11.328Z,5.47
2023-01-04T11:34:00.539Z,6.85
2023-01-04T11:36:37.464Z,5.25
2023-01-04T11:39:27.134Z,5.35
2023-01-04T11:42:06.106Z,4.97
2023-01-04T11:44:36.310Z,5.07
2023-01-04T11:47:18.380Z,4.22
2023-01-04T11:49:47.262Z,4.25
2023-01-04T11:52:37.710Z,4.55
2023-01-04T11:55:25.295Z,3.75
2023-01-04T11:58:12.297Z,4.55
2023-01-04T12:00:50.797Z,4.25
2023-01-04T12:03:29.919Z,4.28
2023-01-04T12:05:59.666Z,4.05
2023-01-04T12:08:35.204Z,4.57
2023-01-04T12:11:05.411Z,3.85
2023-01-04T12:13:35.140Z,3.83
2023-01-04T12:16:19.463Z,3.95
2023-01-04T12:18:47.800Z,4.03
2023-01-04T12:21:20.998Z,5.03
2023-01-04T12:23:49.479Z,4.50
2023-01-04T12:26:18.880Z,4.43
2023-01-04T12:29:11.226Z,5.35
2023-01-04T12:31:39.120Z,3.83
2023-01-04T12:34:44.109Z,4.55
2023-01-04T12:37:32.984Z,4.70
2023-01-04T12:40:00.739Z,4.00
2023-01-04T12:42:28.475Z,4.07
2023-01-04T12:44:56.122Z,3.53
2023-01-04T12:47:48.286Z,4.20
2023-01-04T12:50:20.594Z,4.10
2023-01-04T12:55:44.585Z,4.05
2023-01-04T13:01:30.946Z,4.12
2023-01-04T13:04:06.385Z,5.80
2023-01-04T13:06:43.630Z,4.35
2023-01-04T13:09:24.623Z,3.92
2023-01-04T13:12:14.733Z,3.55
2023-01-04T13:14:50.754Z,4.60
2023-01-04T13:17:21.753Z,4.90
2023-01-04T13:19:50.144Z,3.58
2023-01-04T13:22:29.866Z,4.15
2023-01-04T13:25:00.422Z,3.33
2023-01-04T13:27:28.969Z,3.42
2023-01-04T13:29:56.836Z,3.80
2023-01-04T13:32:24.559Z,3.15
2023-01-04T13:34:56.776Z,4.47
2023-01-04T13:37:38.601Z,2.92
2023-01-04T13:40:28.029Z,2.78
2023-01-04T13:43:17.888Z,2.95
2023-01-04T13:46:22.787Z,4.12
2023-01-04T13:48:54.409Z,3.53
2023-01-04T13:51:38.669Z,4.10
2023-01-04T13:54:28.940Z,3.30
2023-01-04T13:57:10.502Z,5.25
2023-01-04T13:59:38.689Z,3.33
2023-01-04T14:02:20.709Z,3.33
2023-01-04T14:04:50.845Z,4.22
2023-01-04T14:07:25.957Z,4.93
2023-01-04T14:09:57.603Z,5.65
2023-01-04T14:12:28.632Z,5.53
2023-01-04T14:14:59.507Z,3.58
2023-01-04T14:17:49.224Z,3.87
2023-01-04T14:20:16.859Z,3.03
2023-01-04T14:22:47.245Z,4.05
2023-01-04T14:25:39.156Z,2.85
2023-01-04T14:28:30.943Z,3.97
2023-01-04T14:31:19.845Z,4.60
2023-01-04T14:33:50.833Z,3.60
2023-01-04T14:36:28.140Z,3.53
2023-01-04T14:39:07.910Z,2.72
2023-01-04T14:41:53.255Z,3.17
2023-01-04T14:44:27.934Z,3.65
2023-01-04T14:46:57.452Z,4.75
2023-01-04T14:49:28.115Z,3.40
2023-01-04T14:52:12.218Z,3.08
2023-01-04T14:54:40.875Z,3.20
2023-01-04T14:57:10.495Z,4.37
2023-01-04T14:59:38.455Z,5.28
2023-01-04T15:02:06.256Z,4.55
2023-01-04T15:04:34.070Z,3.30
2023-01-04T15:07:02.011Z,4.90
2023-01-04T15:09:31.509Z,5.25
2023-01-04T15:11:59.956Z,3.33
2023-01-04T15:14:27.762Z,4.25
2023-01-04T15:16:55.479Z,4.72
2023-01-04T15:19:23.211Z,4.30
2023-01-04T15:21:50.998Z,4.10
2023-01-04T15:24:18.733Z,3.53
2023-01-04T15:26:46.540Z,2.90
2023-01-04T15:29:14.415Z,4.47
2023-01-04T15:31:44.654Z,3.28
2023-01-04T15:34:14.227Z,5.07
2023-01-04T15:36:42.052Z,2.78
2023-01-04T15:39:13.609Z,3.55
2023-01-04T15:41:59.941Z,4.93
2023-01-04T15:44:27.877Z,3.53
2023-01-04T15:46:55.899Z,5.20
2023-01-04T15:49:23.700Z,3.00
2023-01-04T15:51:51.912Z,2.60
2023-01-04T15:54:19.747Z,3.72
2023-01-04T15:57:13.807Z,3.60
2023-01-04T15:59:42.109Z,3.50
2023-01-04T16:02:12.498Z,8.52
2023-01-04T16:04:43.270Z,6.40
2023-01-04T16:07:10.922Z,6.50
2023-01-04T16:09:39.055Z,5.47
2023-01-04T16:12:25.930Z,6.70
2023-01-04T16:14:53.957Z,5.32
2023-01-04T16:17:21.769Z,5.78
2023-01-04T16:19:49.604Z,6.55
2023-01-04T16:22:17.356Z,6.15
2023-01-04T16:25:09.960Z,8.00
2023-01-04T16:27:35.564Z,6.62
2023-01-04T16:30:05.066Z,6.25
2023-01-04T16:32:45.517Z,5.50
2023-01-04T16:35:13.472Z,5.22
2023-01-04T16:37:41.363Z,7.20
2023-01-04T16:40:10.104Z,6.47
2023-01-04T16:42:41.201Z,5.37
2023-01-04T16:45:35.172Z,4.22
2023-01-04T16:48:02.885Z,6.82
2023-01-04T16:50:30.576Z,5.72
2023-01-04T16:52:59.723Z,4.87
2023-01-04T16:58:44.856Z,3.83
2023-01-04T17:01:20.777Z,2.45
2023-01-04T17:03:49.362Z,4.10
2023-01-04T17:06:21.133Z,3.33
2023-01-04T17:08:51.321Z,3.65
2023-01-04T17:14:15.350Z,2.70
2023-01-04T17:16:43.473Z,3.35
2023-01-04T17:22:46.051Z,5.15
2023-01-04T17:25:13.819Z,4.35
2023-01-04T17:27:41.611Z,2.50
2023-01-04T17:30:10.187Z,5.22
2023-01-04T17:32:40.089Z,2.60
2023-01-04T17:35:08.074Z,3.33
2023-01-04T17:37:35.773Z,4.22
2023-01-04T17:40:04.375Z,3.78
2023-01-04T17:42:34.297Z,4.00
2023-01-04T17:45:02.065Z,2.25
2023-01-04T17:47:32.467Z,2.67
2023-01-04T17:50:00.162Z,4.53
2023-01-04T17:52:33.388Z,4.10
2023-01-04T17:55:24.627Z,2.30
2023-01-04T17:57:52.308Z,2.12
2023-01-04T18:00:20.314Z,2.17
2023-01-04T18:02:48.231Z,1.37
2023-01-04T18:05:16.109Z,1.80
2023-01-04T18:07:43.789Z,1.35
2023-01-04T18:10:21.392Z,2.47
2023-01-04T18:13:00.994Z,1.90
2023-01-04T18:15:28.652Z,2.25
2023-01-04T18:17:56.342Z,3.10
2023-01-04T18:20:25.468Z,1.73
2023-01-04T18:22:53.611Z,1.60
2023-01-04T18:25:21.543Z,1.83
2023-01-04T18:27:49.263Z,1.23
2023-01-04T18:30:17.144Z,1.42
2023-01-04T18:32:44.926Z,2.00
2023-01-04T18:35:12.715Z,1.62
2023-01-04T18:37:40.631Z,2.70
2023-01-04T18:40:08.984Z,1.27
2023-01-04T18:42:36.947Z,1.42
2023-01-04T18:45:08.151Z,1.83
2023-01-04T18:47:36.263Z,1.92
2023-01-04T18:50:06.928Z,1.77
2023-01-04T18:52:41.033Z,1.40
2023-01-04T18:55:12.085Z,1.60
2023-01-04T18:57:46.158Z,1.20
2023-01-04T19:00:14.703Z,1.92
2023-01-04T19:05:32.634Z,2.85
2023-01-04T19:08:00.356Z,3.55
2023-01-04T19:10:28.173Z,2.35
2023-01-04T19:12:55.885Z,2.85
2023-01-04T19:15:25.142Z,2.05
2023-01-04T19:18:19.059Z,1.70
2023-01-04T19:20:47.078Z,1.30
2023-01-04T19:23:14.675Z,1.65
2023-01-04T19:25:42.731Z,1.60
2023-01-04T19:28:13.165Z,1.10
2023-01-04T19:30:42.533Z,2.22
2023-01-04T19:36:44.095Z,3.70
2023-01-04T19:39:11.896Z,2.03
2023-01-04T19:41:39.592Z,3.17
2023-01-04T19:44:09.903Z,5.70
2023-01-04T19:46:41.896Z,4.75
2023-01-04T19:49:15.137Z,4.10
2023-01-04T19:51:45.623Z,2.10
2023-01-04T19:54:18.716Z,2.70
2023-01-04T19:56:51.282Z,3.55
2023-01-04T19:59:19.001Z,1.40
2023-01-04T20:01:47.031Z,1.23
2023-01-04T20:07:45.562Z,1.67
2023-01-04T20:10:14.638Z,1.27
2023-01-04T20:12:42.460Z,1.37
2023-01-04T20:15:11.541Z,1.85
2023-01-04T20:17:39.276Z,1.92
2023-01-04T20:23:17.675Z,0.98
2023-01-04T20:25:51.686Z,1.87
2023-01-04T20:28:21.937Z,0.93
2023-01-04T20:30:49.821Z,1.20
2023-01-04T20:33:17.686Z,1.27
2023-01-04T20:35:45.993Z,1.40
2023-01-04T20:38:13.696Z,0.98
2023-01-04T20:40:41.901Z,1.42
2023-01-04T20:43:29.253Z,1.27
2023-01-04T20:46:12.325Z,1.40
2023-01-04T20:48:40.896Z,1.25
2023-01-04T20:51:19.067Z,1.25
2023-01-04T20:53:47.266Z,1.08
2023-01-04T20:56:26.923Z,1.27
2023-01-04T20:58:55.566Z,0.98
2023-01-04T21:01:23.650Z,1.40
2023-01-04T21:03:51.580Z,0.93
2023-01-04T21:06:21.344Z,1.10
2023-01-04T21:08:51.469Z,2.92
2023-01-04T21:11:20.106Z,1.20
2023-01-04T21:13:48.918Z,1.10
2023-01-04T21:16:17.138Z,0.88
2023-01-04T21:18:44.884Z,0.90
2023-01-04T21:21:17.602Z,0.90
2023-01-04T21:23:54.572Z,0.80
2023-01-04T21:26:25.508Z,1.00
2023-01-04T21:28:53.234Z,1.75
2023-01-04T21:31:29.462Z,1.05
2023-01-04T21:33:57.208Z,0.80
2023-01-04T21:36:28.753Z,0.80
2023-01-04T21:38:58.464Z,0.95
2023-01-04T21:41:27.396Z,1.00
2023-01-04T21:43:57.645Z,0.95
2023-01-04T21:46:27.088Z,0.98
2023-01-04T21:48:59.192Z,2.10
2023-01-04T21:51:27.124Z,2.08
2023-01-04T21:53:55.255Z,0.90
2023-01-04T21:56:25.426Z,1.42
2023-01-04T21:58:56.203Z,1.15
2023-01-04T22:01:34.564Z,1.17
2023-01-04T22:04:03.124Z,1.33
2023-01-04T22:10:02.969Z,1.27
2023-01-04T22:12:39.750Z,2.08
2023-01-04T22:15:10.756Z,1.20
2023-01-04T22:17:42.226Z,1.37
2023-01-04T22:20:17.799Z,0.93
2023-01-04T22:22:46.689Z,1.10
2023-01-04T22:25:39.339Z,1.10
2023-01-04T22:28:15.701Z,1.12
2023-01-04T22:31:00.065Z,1.73
2023-01-04T22:33:31.705Z,1.35
2023-01-04T22:36:06.646Z,1.27
2023-01-04T22:39:14.240Z,1.70
2023-01-04T22:41:56.932Z,1.20
2023-01-04T22:44:35.255Z,1.20
2023-01-04T22:47:05.722Z,1.30
2023-01-04T22:50:13.437Z,3.42
2023-01-04T22:52:43.602Z,2.70
2023-01-04T22:55:15.032Z,1.45
2023-01-04T22:57:44.720Z,1.05
2023-01-04T23:00:13.336Z,1.05
2023-01-04T23:02:41.476Z,1.87
2023-01-04T23:05:09.604Z,1.10
2023-01-04T23:07:37.283Z,2.17
2023-01-04T23:10:05.222Z,0.90
2023-01-04T23:12:35.755Z,0.88
2023-01-04T23:15:04.858Z,1.40
2023-01-04T23:17:32.636Z,1.50
2023-01-04T23:20:10.503Z,1.12
2023-01-04T23:22:38.544Z,1.95
2023-01-04T23:25:06.682Z,0.98
2023-01-04T23:27:34.363Z,1.10
2023-01-04T23:30:02.199Z,1.08
2023-01-04T23:32:30.631Z,1.42
2023-01-04T23:34:58.444Z,1.20
2023-01-04T23:37:27.005Z,1.23
2023-01-04T23:39:54.716Z,2.37
2023-01-04T23:42:22.366Z,1.08
2023-01-04T23:44:50.042Z,0.95
2023-01-04T23:47:17.670Z,1.10
2023-01-04T23:49:47.057Z,1.35
2023-01-04T23:52:14.751Z,1.60
2023-01-04T23:54:42.429Z,1.10
2023-01-04T23:57:10.085Z,2.05
2023-01-04T23:59:37.922Z,1.85
